»·PEaware :: N6507W L88-KIZA

N6507W :: L88-KIZA

FLIGHT INFORMATION

Flight Status: Arrived
Operator: Privately registered:
United States
More flights under this callsign
Pilot: Jukka N. (18040)
Aircraft: CESSNA 172 SKYHAWK
(C172)
More flights by this aircraft type
Origin: L88 New Cuyama
United States
Destination: KIZA Santa Ynez
United States
More flights between these airports :: More routes between these airports
Route:
File this flight plan on PilotEdge
Remarks:
Altitude:
(Current/Filed)
8,500ft
Speed:
(Current/Filed)
150kts
Departed: 09-Mar-19 11:21 AM
Arrived: 09-Mar-19 12:10 PM
Distance/Time
Traveled:
27nm/0:49
Distance/Time
To Go:
Arrived

Flight Plot

Page will automatically refresh every two minutes.

Flight plan parsing failed; only flown route is shown


Map Options




Map Legend


Flown Route
Filed Route
Departure Airport
Arrival Airport
Navaid (VOR, NDB)
Fix

Horizontal Profiles

Position Reports

Time Latitude Longitude Heading Altitude Ground
Speed
09-Mar-19 11:14 34.942840 -119.690294 204 2206ft 0kts
09-Mar-19 11:15 34.942840 -119.690294 204 2206ft 0kts
09-Mar-19 11:16 34.942840 -119.690294 204 2206ft 0kts
09-Mar-19 11:17 34.942840 -119.690294 204 2206ft 0kts
09-Mar-19 11:19 34.942633 -119.691269 209 2206ft 5kts
09-Mar-19 11:20 34.942518 -119.691345 204 2206ft 0kts
09-Mar-19 11:21 34.938373 -119.681835 114 2279ft 90kts
09-Mar-19 11:22 34.928511 -119.653648 102 3267ft 93kts
09-Mar-19 11:23 34.915253 -119.628828 186 4149ft 91kts
09-Mar-19 11:24 34.904338 -119.647215 258 4987ft 73kts
09-Mar-19 11:25 34.898660 -119.670330 257 5888ft 69kts
09-Mar-19 11:26 34.893382 -119.691731 256 6788ft 63kts
09-Mar-19 11:27 34.888755 -119.710150 254 7667ft 50kts
09-Mar-19 11:28 34.882813 -119.724571 237 8301ft 59kts
09-Mar-19 11:29 34.872031 -119.747048 254 8498ft 95kts
09-Mar-19 11:30 34.866433 -119.775865 292 8489ft 106kts
09-Mar-19 11:31 34.897113 -119.778120 331 8490ft 118kts
09-Mar-19 11:32 34.887957 -119.800164 202 8493ft 116kts
09-Mar-19 11:33 34.856526 -119.809632 202 8501ft 116kts
09-Mar-19 11:34 34.826627 -119.822385 221 8500ft 111kts
09-Mar-19 11:35 34.811476 -119.852943 246 8500ft 105kts
09-Mar-19 11:36 34.799648 -119.882478 247 8500ft 105kts
09-Mar-19 11:37 34.786884 -119.914689 247 8500ft 105kts
09-Mar-19 11:38 34.774128 -119.946890 247 8500ft 105kts
09-Mar-19 11:39 34.761496 -119.978524 246 8500ft 105kts
09-Mar-19 11:40 34.742494 -120.002534 172 8499ft 125kts
09-Mar-19 11:41 34.735404 -119.963699 62 8501ft 142kts
09-Mar-19 11:41 34.749480 -119.927267 61 8500ft 143kts
09-Mar-19 11:42 34.766139 -119.883343 74 8488ft 144kts
09-Mar-19 11:44 34.742425 -119.891983 237 8501ft 106kts
09-Mar-19 11:44 34.747986 -119.916414 334 8498ft 119kts
09-Mar-19 11:45 34.776516 -119.891942 39 8500ft 138kts
09-Mar-19 11:46 34.789012 -119.856821 172 8498ft 126kts
09-Mar-19 11:47 34.768428 -119.879892 238 8499ft 100kts
09-Mar-19 11:48 34.751923 -119.906654 238 8500ft 98kts
09-Mar-19 11:49 34.735517 -119.933243 237 8500ft 97kts
09-Mar-19 11:50 34.717727 -119.962415 238 7769ft 116kts
09-Mar-19 11:51 34.698234 -119.994465 238 6770ft 119kts
09-Mar-19 11:52 34.673300 -120.016401 161 5754ft 138kts
09-Mar-19 11:53 34.643667 -119.986492 145 4754ft 133kts
09-Mar-19 11:54 34.619509 -119.960604 145 4477ft 101kts
09-Mar-19 11:55 34.601209 -119.937134 135 4480ft 93kts
09-Mar-19 11:56 34.585479 -119.912755 136 4481ft 90kts
09-Mar-19 11:57 34.569842 -119.888777 136 4482ft 90kts
09-Mar-19 11:58 34.559289 -119.895884 304 4481ft 78kts
09-Mar-19 11:59 34.576651 -119.912517 305 4482ft 79kts
09-Mar-19 12:00 34.587773 -119.934328 281 4482ft 74kts
09-Mar-19 12:01 34.592582 -119.959796 275 3963ft 84kts
09-Mar-19 12:02 34.596292 -119.988085 274 3371ft 86kts
09-Mar-19 12:03 34.600106 -120.019518 275 2403ft 102kts
09-Mar-19 12:04 34.604008 -120.052433 275 1290ft 99kts
09-Mar-19 12:05 34.607623 -120.082192 273 815ft 70kts
09-Mar-19 12:06 34.597891 -120.094809 124 1652ft 93kts
09-Mar-19 12:07 34.596076 -120.065198 93 1468ft 80kts
09-Mar-19 12:08 34.604826 -120.057770 265 1189ft 70kts
09-Mar-19 12:09 34.607174 -120.078483 277 673ft 32kts
09-Mar-19 12:10 34.607411 -120.077054 98 673ft 12kts
09-Mar-19 12:11 34.607517 -120.073862 83 673ft 8kts
09-Mar-19 12:12 34.607395 -120.072783 98 673ft 0kts
09-Mar-19 12:13 34.607315 -120.072866 2 673ft 1kts
09-Mar-19 12:14 34.607306 -120.072866 3 673ft 0kts
09-Mar-19 12:15 34.607306 -120.072866 3 673ft 0kts
09-Mar-19 12:16 34.607306 -120.072866 3 673ft 0kts
09-Mar-19 12:17 34.607306 -120.072866 3 673ft 0kts

Navigation Log

Ident Type
Flight plan parsing failed, navigation log unavailable